08-01--»17-01: Eventos fuertes o severos centro y norte. Calor suave. Pasajes frios en Patagonia

Avatar de Usuario
Diecha
Mensajes: 14770
Registrado: Jue Ago 25, 2011 9:31 pm
Ubicación: Lomas de Zamora

Re: 08-01--»15-01: Eventos fuertes o severos centro y norte. Calor suave. Pasajes frios en Patagonia

Mensaje por Diecha » Mar Ene 12, 2021 7:32 pm

Imagen

Imagen
Spoiler
Mostrar
Imagen
Imagen
Imagen
Imagen
Imagen
Imagen

Avatar de Usuario
Diecha
Mensajes: 14770
Registrado: Jue Ago 25, 2011 9:31 pm
Ubicación: Lomas de Zamora

Re: 08-01--»15-01: Eventos fuertes o severos centro y norte. Calor suave. Pasajes frios en Patagonia

Mensaje por Diecha » Mar Ene 12, 2021 8:27 pm

- Rosario 20 hs: SAAR 122300Z 11005KT CAVOK 25/14 Q1015
- Junín 20 hs: SAAJ 122300Z 09004KT CAVOK 22/08 Q1016

Imagen
Imagen
Imagen

Avatar de Usuario
Ernest
Mensajes: 12022
Registrado: Vie Jul 17, 2009 10:54 pm
Ubicación: Balvanera, CABA

Re: 08-01--»15-01: Eventos fuertes o severos centro y norte. Calor suave. Pasajes frios en Patagonia

Mensaje por Ernest » Mar Ene 12, 2021 9:13 pm

19,3 por Savio. Algunos altocumulos en el cielo y viento muy suave.
Did you want to talk about the weather, or were you just making chitchat?

Twitter: @ErnestoMeteo

Avatar de Usuario
NicodWilde
Mensajes: 16808
Registrado: Mié Ago 01, 2012 7:34 pm
Ubicación: Wilde, Buenos Aires

Re: 08-01--»15-01: Eventos fuertes o severos centro y norte. Calor suave. Pasajes frios en Patagonia

Mensaje por NicodWilde » Mar Ene 12, 2021 9:54 pm

La máxima de hoy se ubicó en 25.2
No necesito que sea fácil, sólo que sea posible.

Nico

lucasgar
Mensajes: 2661
Registrado: Vie Ago 22, 2014 7:40 pm
Ubicación: San Justo, Oeste del GBA

Re: 08-01--»15-01: Eventos fuertes o severos centro y norte. Calor suave. Pasajes frios en Patagonia

Mensaje por lucasgar » Mar Ene 12, 2021 9:55 pm

Los extremos de hoy en el OCBA fueron 15,6°C / 25,2°C. Por primera vez en lo que va del mes se bajó de 18°C.
#MuerteAlasPseudoClasesOnline
#MuerteAlosPseudoExamenesOnline

Avatar de Usuario
Diecha
Mensajes: 14770
Registrado: Jue Ago 25, 2011 9:31 pm
Ubicación: Lomas de Zamora

Re: 08-01--»15-01: Eventos fuertes o severos centro y norte. Calor suave. Pasajes frios en Patagonia

Mensaje por Diecha » Mar Ene 12, 2021 10:06 pm

Imagen

Imagen
Spoiler
Mostrar
Imagen
Imagen
Imagen
Imagen
Imagen
Imagen
Última edición por Diecha el Mié Ene 13, 2021 12:03 pm, editado 1 vez en total.

Avatar de Usuario
Diecha
Mensajes: 14770
Registrado: Jue Ago 25, 2011 9:31 pm
Ubicación: Lomas de Zamora

Re: 08-01--»15-01: Eventos fuertes o severos centro y norte. Calor suave. Pasajes frios en Patagonia

Mensaje por Diecha » Mar Ene 12, 2021 11:27 pm

- Junín 23 hs: SAAJ 130200Z 11004KT CAVOK 17/08 Q1017

Imagen
Imagen

Avatar de Usuario
Ernest
Mensajes: 12022
Registrado: Vie Jul 17, 2009 10:54 pm
Ubicación: Balvanera, CABA

Re: 08-01--»15-01: Eventos fuertes o severos centro y norte. Calor suave. Pasajes frios en Patagonia

Mensaje por Ernest » Mié Ene 13, 2021 7:11 am

15,2 en Savio a esta hora. Está muy calma la mañana así que es posible que en zonas más abiertas haga uno o dos grados menos.
Sin embargo, en la mayoría de las estaciones del conurbano la T anda en los 17 a 19 grados a las 7.
Did you want to talk about the weather, or were you just making chitchat?

Twitter: @ErnestoMeteo

Avatar de Usuario
pupy
Mensajes: 2534
Registrado: Mar Mar 02, 2010 7:15 pm
Ubicación: Cordoba capital

Re: 08-01--»15-01: Eventos fuertes o severos centro y norte. Calor suave. Pasajes frios en Patagonia

Mensaje por pupy » Mié Ene 13, 2021 9:07 am

Llovizna en cordoba capital !

Danywilde
Mensajes: 2759
Registrado: Mar Ene 24, 2012 1:41 pm
Ubicación: Wilde, Buenos Aires

Re: 08-01--»15-01: Eventos fuertes o severos centro y norte. Calor suave. Pasajes frios en Patagonia

Mensaje por Danywilde » Mié Ene 13, 2021 10:46 am

Espectacular mañana. Mejor, imposible ...
Temperatura 22.7°C
Humedad 55%
Presión 1019.5hPa
Viento N 06Km/h
Cielo despejado
Visibilidad 10Km

Responder